Johnny James — WYT8450 — position and weather

sailwx.info

Track history (hours):
 
Tides and Currents Weather Stations Pressure Air Temp Water Temp Dewpoint Dewpoint Depression Visibility Wind Speed Wind Dir Waves Ship Positions

Johnny James

Owner: CALLAIS & SONS INC, CUT OFF, LA. More information available from US FCC via Universal Licensing System and Coast Guard Vessel Documentation Center.

Last reported at 2016-Jun-25 13:33 UTC. Time now 2016-Jun-25 14:20 UTC.
Position N 29°37' W 095°02'.

Length 20 m.

Type: Towing. MMSI: 367005220.

Date/timePositionNaut miles runAvg speedWind from/ knotsBaromVisibWave heightAir tempDewpointWater temp
2016-Jun-25 13:33N 29°37' W 095°02'0 0.0
2016-Jun-25 12:33N 29°37' W 095°02'0 0.0
2016-Jun-25 11:32N 29°37' W 095°02'0 0.2
2016-Jun-25 10:33N 29°37' W 095°01'0 0.0
2016-Jun-25 09:34N 29°37' W 095°01'0 0.0
2016-Jun-25 08:33N 29°37' W 095°01'0 0.0
2016-Jun-25 07:33N 29°37' W 095°01'0 0.0
2016-Jun-25 06:34N 29°37' W 095°01'0 0.0
2016-Jun-25 05:34N 29°37' W 095°01'0 0.0
2016-Jun-25 04:33N 29°37' W 095°01'0 0.0
2016-Jun-25 03:33N 29°37' W 095°01'0 0.0
2016-Jun-25 02:33N 29°37' W 095°01'0 0.0
2016-Jun-25 01:33N 29°37' W 095°01'0 0.0
2016-Jun-25 00:33N 29°37' W 095°01'0 0.0
2016-Jun-24 23:33N 29°37' W 095°01'0 0.2
2016-Jun-24 22:33N 29°37' W 095°01'0 0.0
2016-Jun-24 21:33N 29°37' W 095°01'0 0.0
2016-Jun-24 20:33N 29°37' W 095°01'3 3.2
2016-Jun-24 19:32N 29°37' W 094°58'6 5.9
2016-Jun-24 18:32N 29°42' W 095°01'5 5.6
2016-Jun-24 17:33N 29°46' W 095°05'1 0.3
2016-Jun-24 14:28N 29°46' W 095°06'2 1.2
2016-Jun-24 13:03N 29°47' W 095°04'2 0.5
2016-Jun-24 08:32N 29°45' W 095°06'1 0.7
2016-Jun-24 07:26N 29°46' W 095°06'1 0.4
2016-Jun-24 04:27N 29°46' W 095°05'2 2.3
2016-Jun-24 03:32N 29°45' W 095°06'0 0.0
2016-Jun-24 02:33N 29°45' W 095°06'2 0.9
2016-Jun-24 00:32N 29°46' W 095°05'1 1.1
2016-Jun-23 23:22N 29°47' W 095°04'3 3.5
2016-Jun-23 22:32N 29°45' W 095°06'0 0.1
2016-Jun-23 21:30N 29°45' W 095°06'0 0.0
2016-Jun-23 20:30N 29°45' W 095°06'0 0.0
2016-Jun-23 19:33N 29°45' W 095°06'0 0.0
2016-Jun-23 18:33N 29°45' W 095°06'0 0.0
2016-Jun-23 17:31N 29°45' W 095°06'0 0.0
2016-Jun-23 16:33N 29°45' W 095°06'0 0.0
2016-Jun-23 15:33N 29°45' W 095°06'0 0.0
2016-Jun-23 14:27N 29°45' W 095°06'0 0.0
2016-Jun-23 13:34N 29°45' W 095°06'0 0.0
2016-Jun-23 12:33N 29°45' W 095°06'0 0.0
2016-Jun-23 11:31N 29°45' W 095°06'0 0.0
2016-Jun-23 10:24N 29°45' W 095°06'0 0.0
2016-Jun-23 09:33N 29°45' W 095°06'0 0.0
2016-Jun-23 08:32N 29°45' W 095°06'1 0.8
2016-Jun-23 07:30N 29°45' W 095°06'1 0.4
2016-Jun-23 05:33N 29°45' W 095°06'0 0.0
2016-Jun-23 04:33N 29°45' W 095°06'0 0.0
2016-Jun-23 03:33N 29°45' W 095°06'0 0.0
2016-Jun-23 02:33N 29°45' W 095°06'0 0.2
2016-Jun-23 01:30N 29°45' W 095°06'3 3.5
2016-Jun-23 00:32N 29°44' W 095°02'5 4.8
2016-Jun-22 23:33N 29°40' W 094°59'6 5.6
2016-Jun-22 22:33N 29°35' W 094°56'6 5.7
2016-Jun-22 21:33N 29°31' W 094°53'60 2.3
2016-Jun-21 19:21N 29°59' W 093°52'11 1.5
2016-Jun-21 12:17N 30°04' W 094°03'0 0.0
2016-Jun-21 11:31N 30°04' W 094°03'0 0.0
2016-Jun-21 08:16N 30°04' W 094°03'0 0.0
2016-Jun-21 01:24N 30°04' W 094°03'3 0.2
2016-Jun-20 09:26N 30°02' W 094°02'10 3.3
2016-Jun-20 06:22N 29°55' W 093°53'4 4.5
2016-Jun-20 05:33N 29°52' W 093°56'55 3.6
2016-Jun-19 14:33N 29°34' W 094°55'5 5.3
2016-Jun-19 13:33N 29°38' W 094°58'5 5.0
2016-Jun-19 12:33N 29°42' W 095°01'5 4.2
2016-Jun-19 11:24N 29°45' W 095°06'1 0.8
2016-Jun-19 10:33N 29°45' W 095°06'0 0.1
2016-Jun-19 09:33N 29°45' W 095°06'0 0.0
2016-Jun-19 08:31N 29°45' W 095°06'0 0.0
2016-Jun-19 07:24N 29°45' W 095°06'0 0.0
2016-Jun-19 06:14N 29°45' W 095°06'0 0.0
2016-Jun-19 04:25N 29°45' W 095°06'0 0.0
2016-Jun-19 03:30N 29°45' W 095°06'0 0.0
2016-Jun-19 02:13N 29°45' W 095°06'0 0.0
2016-Jun-19 01:33N 29°45' W 095°06'0 0.0
2016-Jun-18 23:30N 29°45' W 095°06'0 0.0
2016-Jun-18 22:33N 29°45' W 095°06'0 0.0
2016-Jun-18 21:33N 29°45' W 095°06'0 0.0
2016-Jun-18 20:29N 29°45' W 095°06'0 0.0
2016-Jun-18 19:31N 29°45' W 095°06'0 0.0
2016-Jun-18 18:26N 29°45' W 095°06'0 0.0
2016-Jun-18 17:33N 29°45' W 095°06'0 0.0
2016-Jun-18 16:33N 29°45' W 095°06'0 0.0
2016-Jun-18 15:31N 29°45' W 095°06'0 0.0
2016-Jun-18 14:33N 29°45' W 095°06'0 0.0
2016-Jun-18 13:24N 29°45' W 095°06'0 0.1
2016-Jun-18 12:29N 29°45' W 095°06'0 0.1
2016-Jun-18 11:34N 29°45' W 095°06'1 0.8
2016-Jun-18 10:33N 29°46' W 095°06'1 0.8
2016-Jun-18 09:31N 29°46' W 095°05'1 1.3
2016-Jun-18 08:33N 29°47' W 095°04'0 0.1
2016-Jun-18 07:29N 29°47' W 095°04'1 0.6
2016-Jun-18 06:07N 29°46' W 095°05'3 4.5
2016-Jun-18 05:33N 29°44' W 095°03'5 5.5
2016-Jun-18 04:33N 29°40' W 094°59'4 3.9
2016-Jun-18 03:33N 29°37' W 095°01'1 0.8
2016-Jun-18 02:33N 29°37' W 095°01'0 0.0
2016-Jun-18 01:33N 29°37' W 095°01'0 0.2
2016-Jun-18 00:33N 29°37' W 095°01'0 0.0
2016-Jun-17 23:33N 29°37' W 095°01'0 0.1
2016-Jun-17 21:34N 29°37' W 095°01'0 0.1
2016-Jun-17 20:33N 29°37' W 095°02'0 0.0
2016-Jun-17 19:33N 29°37' W 095°02'0 0.0
2016-Jun-17 18:33N 29°37' W 095°02'0 0.0
2016-Jun-17 17:32N 29°37' W 095°02'0 0.0
2016-Jun-17 16:33N 29°37' W 095°02'0 0.0
2016-Jun-17 15:33N 29°37' W 095°02'0 0.0
2016-Jun-17 14:33N 29°37' W 095°02'0 0.0
2016-Jun-17 13:32N 29°37' W 095°02'0 0.1
2016-Jun-17 12:33N 29°37' W 095°01'2 2.3
2016-Jun-17 11:33N 29°37' W 094°59'5 5.3
2016-Jun-17 10:32N 29°42' W 095°00'6 5.6
2016-Jun-17 09:33N 29°46' W 095°05'1 0.3
2016-Jun-17 06:33N 29°47' W 095°04'4 3.9
2016-Jun-17 05:29N 29°44' W 095°01'3 3.0
2016-Jun-17 04:33N 29°45' W 095°04'2 1.4
2016-Jun-17 03:03N 29°47' W 095°04'3 1.7
2016-Jun-17 01:33N 29°46' W 095°07'1 0.9
2016-Jun-17 00:33N 29°46' W 095°06'0 0.1
2016-Jun-16 23:33N 29°46' W 095°06'4 4.5
2016-Jun-16 22:33N 29°43' W 095°01'0 0.5
2016-Jun-16 21:33N 29°44' W 095°01'0 0.0
2016-Jun-16 20:31N 29°44' W 095°01'0 0.0
2016-Jun-16 19:33N 29°44' W 095°01'0 0.0
2016-Jun-16 18:31N 29°44' W 095°01'0 0.4
2016-Jun-16 17:28N 29°43' W 095°01'4 1.5
2016-Jun-16 14:25N 29°47' W 095°04'0 0.1
2016-Jun-16 12:32N 29°47' W 095°04'0 0.0
2016-Jun-16 11:31N 29°47' W 095°04'0 0.0
2016-Jun-16 08:32N 29°47' W 095°04'3 0.5
2016-Jun-16 02:28N 29°44' W 095°07'4 1.7
2016-Jun-16 00:27N 29°45' W 095°11'3 2.8
2016-Jun-15 23:28N 29°44' W 095°08'4 4.9
2016-Jun-15 22:33N 29°47' W 095°04'0 0.3
2016-Jun-15 21:33N 29°47' W 095°04'3 3.1
2016-Jun-15 20:33N 29°44' W 095°03'3 2.6
2016-Jun-15 19:33N 29°47' W 095°05'1 0.2
2016-Jun-15 14:21N 29°46' W 095°05'  
Track history (hours):
 
Tides and Currents Weather Stations Pressure Air Temp Water Temp Dewpoint Dewpoint Depression Visibility Wind Speed Wind Dir Waves Ship Positions

Johnny James

Owner: CALLAIS & SONS INC, CUT OFF, LA. More information available from US FCC via Universal Licensing System and Coast Guard Vessel Documentation Center.

Last reported at 2016-Jun-25 13:33 UTC. Time now 2016-Jun-25 14:20 UTC.
Position N 29°37' W 095°02'.

Length 20 m.

Type: Towing. MMSI: 367005220.

Date/timePositionNaut miles runAvg speedWind from/ knotsBaromVisibWave heightAir tempDewpointWater temp
2016-Jun-25 13:33N 29°37' W 095°02'0 0.0
2016-Jun-25 12:33N 29°37' W 095°02'0 0.0
2016-Jun-25 11:32N 29°37' W 095°02'0 0.2
2016-Jun-25 10:33N 29°37' W 095°01'0 0.0
2016-Jun-25 09:34N 29°37' W 095°01'0 0.0
2016-Jun-25 08:33N 29°37' W 095°01'0 0.0
2016-Jun-25 07:33N 29°37' W 095°01'0 0.0
2016-Jun-25 06:34N 29°37' W 095°01'0 0.0
2016-Jun-25 05:34N 29°37' W 095°01'0 0.0
2016-Jun-25 04:33N 29°37' W 095°01'0 0.0
2016-Jun-25 03:33N 29°37' W 095°01'0 0.0
2016-Jun-25 02:33N 29°37' W 095°01'0 0.0
2016-Jun-25 01:33N 29°37' W 095°01'0 0.0
2016-Jun-25 00:33N 29°37' W 095°01'0 0.0
2016-Jun-24 23:33N 29°37' W 095°01'0 0.2
2016-Jun-24 22:33N 29°37' W 095°01'0 0.0
2016-Jun-24 21:33N 29°37' W 095°01'0 0.0
2016-Jun-24 20:33N 29°37' W 095°01'3 3.2
2016-Jun-24 19:32N 29°37' W 094°58'6 5.9
2016-Jun-24 18:32N 29°42' W 095°01'5 5.6
2016-Jun-24 17:33N 29°46' W 095°05'1 0.3
2016-Jun-24 14:28N 29°46' W 095°06'2 1.2
2016-Jun-24 13:03N 29°47' W 095°04'2 0.5
2016-Jun-24 08:32N 29°45' W 095°06'1 0.7
2016-Jun-24 07:26N 29°46' W 095°06'1 0.4
2016-Jun-24 04:27N 29°46' W 095°05'2 2.3
2016-Jun-24 03:32N 29°45' W 095°06'0 0.0
2016-Jun-24 02:33N 29°45' W 095°06'2 0.9
2016-Jun-24 00:32N 29°46' W 095°05'1 1.1
2016-Jun-23 23:22N 29°47' W 095°04'3 3.5
2016-Jun-23 22:32N 29°45' W 095°06'0 0.1
2016-Jun-23 21:30N 29°45' W 095°06'0 0.0
2016-Jun-23 20:30N 29°45' W 095°06'0 0.0
2016-Jun-23 19:33N 29°45' W 095°06'0 0.0
2016-Jun-23 18:33N 29°45' W 095°06'0 0.0
2016-Jun-23 17:31N 29°45' W 095°06'0 0.0
2016-Jun-23 16:33N 29°45' W 095°06'0 0.0
2016-Jun-23 15:33N 29°45' W 095°06'0 0.0
2016-Jun-23 14:27N 29°45' W 095°06'0 0.0
2016-Jun-23 13:34N 29°45' W 095°06'0 0.0
2016-Jun-23 12:33N 29°45' W 095°06'0 0.0
2016-Jun-23 11:31N 29°45' W 095°06'0 0.0
2016-Jun-23 10:24N 29°45' W 095°06'0 0.0
2016-Jun-23 09:33N 29°45' W 095°06'0 0.0
2016-Jun-23 08:32N 29°45' W 095°06'1 0.8
2016-Jun-23 07:30N 29°45' W 095°06'1 0.4
2016-Jun-23 05:33N 29°45' W 095°06'0 0.0
2016-Jun-23 04:33N 29°45' W 095°06'0 0.0
2016-Jun-23 03:33N 29°45' W 095°06'0 0.0
2016-Jun-23 02:33N 29°45' W 095°06'0 0.2
2016-Jun-23 01:30N 29°45' W 095°06'3 3.5
2016-Jun-23 00:32N 29°44' W 095°02'5 4.8
2016-Jun-22 23:33N 29°40' W 094°59'6 5.6
2016-Jun-22 22:33N 29°35' W 094°56'6 5.7
2016-Jun-22 21:33N 29°31' W 094°53'60 2.3
2016-Jun-21 19:21N 29°59' W 093°52'11 1.5
2016-Jun-21 12:17N 30°04' W 094°03'0 0.0
2016-Jun-21 11:31N 30°04' W 094°03'0 0.0
2016-Jun-21 08:16N 30°04' W 094°03'0 0.0
2016-Jun-21 01:24N 30°04' W 094°03'3 0.2
2016-Jun-20 09:26N 30°02' W 094°02'10 3.3
2016-Jun-20 06:22N 29°55' W 093°53'4 4.5
2016-Jun-20 05:33N 29°52' W 093°56'55 3.6
2016-Jun-19 14:33N 29°34' W 094°55'5 5.3
2016-Jun-19 13:33N 29°38' W 094°58'5 5.0
2016-Jun-19 12:33N 29°42' W 095°01'5 4.2
2016-Jun-19 11:24N 29°45' W 095°06'1 0.8
2016-Jun-19 10:33N 29°45' W 095°06'0 0.1
2016-Jun-19 09:33N 29°45' W 095°06'0 0.0
2016-Jun-19 08:31N 29°45' W 095°06'0 0.0
2016-Jun-19 07:24N 29°45' W 095°06'0 0.0
2016-Jun-19 06:14N 29°45' W 095°06'0 0.0
2016-Jun-19 04:25N 29°45' W 095°06'0 0.0
2016-Jun-19 03:30N 29°45' W 095°06'0 0.0
2016-Jun-19 02:13N 29°45' W 095°06'0 0.0
2016-Jun-19 01:33N 29°45' W 095°06'0 0.0
2016-Jun-18 23:30N 29°45' W 095°06'0 0.0
2016-Jun-18 22:33N 29°45' W 095°06'0 0.0
2016-Jun-18 21:33N 29°45' W 095°06'0 0.0
2016-Jun-18 20:29N 29°45' W 095°06'0 0.0
2016-Jun-18 19:31N 29°45' W 095°06'0 0.0
2016-Jun-18 18:26N 29°45' W 095°06'0 0.0
2016-Jun-18 17:33N 29°45' W 095°06'0 0.0
2016-Jun-18 16:33N 29°45' W 095°06'0 0.0
2016-Jun-18 15:31N 29°45' W 095°06'0 0.0
2016-Jun-18 14:33N 29°45' W 095°06'0 0.0
2016-Jun-18 13:24N 29°45' W 095°06'0 0.1
2016-Jun-18 12:29N 29°45' W 095°06'0 0.1
2016-Jun-18 11:34N 29°45' W 095°06'1 0.8
2016-Jun-18 10:33N 29°46' W 095°06'1 0.8
2016-Jun-18 09:31N 29°46' W 095°05'1 1.3
2016-Jun-18 08:33N 29°47' W 095°04'0 0.1
2016-Jun-18 07:29N 29°47' W 095°04'1 0.6
2016-Jun-18 06:07N 29°46' W 095°05'3 4.5
2016-Jun-18 05:33N 29°44' W 095°03'5 5.5
2016-Jun-18 04:33N 29°40' W 094°59'4 3.9
2016-Jun-18 03:33N 29°37' W 095°01'1 0.8
2016-Jun-18 02:33N 29°37' W 095°01'0 0.0
2016-Jun-18 01:33N 29°37' W 095°01'0 0.2
2016-Jun-18 00:33N 29°37' W 095°01'0 0.0
2016-Jun-17 23:33N 29°37' W 095°01'0 0.1
2016-Jun-17 21:34N 29°37' W 095°01'0 0.1
2016-Jun-17 20:33N 29°37' W 095°02'0 0.0
2016-Jun-17 19:33N 29°37' W 095°02'0 0.0
2016-Jun-17 18:33N 29°37' W 095°02'0 0.0
2016-Jun-17 17:32N 29°37' W 095°02'0 0.0
2016-Jun-17 16:33N 29°37' W 095°02'0 0.0
2016-Jun-17 15:33N 29°37' W 095°02'0 0.0
2016-Jun-17 14:33N 29°37' W 095°02'0 0.0
2016-Jun-17 13:32N 29°37' W 095°02'0 0.1
2016-Jun-17 12:33N 29°37' W 095°01'2 2.3
2016-Jun-17 11:33N 29°37' W 094°59'5 5.3
2016-Jun-17 10:32N 29°42' W 095°00'6 5.6
2016-Jun-17 09:33N 29°46' W 095°05'1 0.3
2016-Jun-17 06:33N 29°47' W 095°04'4 3.9
2016-Jun-17 05:29N 29°44' W 095°01'3 3.0
2016-Jun-17 04:33N 29°45' W 095°04'2 1.4
2016-Jun-17 03:03N 29°47' W 095°04'3 1.7
2016-Jun-17 01:33N 29°46' W 095°07'1 0.9
2016-Jun-17 00:33N 29°46' W 095°06'0 0.1
2016-Jun-16 23:33N 29°46' W 095°06'4 4.5
2016-Jun-16 22:33N 29°43' W 095°01'0 0.5
2016-Jun-16 21:33N 29°44' W 095°01'0 0.0
2016-Jun-16 20:31N 29°44' W 095°01'0 0.0
2016-Jun-16 19:33N 29°44' W 095°01'0 0.0
2016-Jun-16 18:31N 29°44' W 095°01'0 0.4
2016-Jun-16 17:28N 29°43' W 095°01'4 1.5
2016-Jun-16 14:25N 29°47' W 095°04'0 0.1
2016-Jun-16 12:32N 29°47' W 095°04'0 0.0
2016-Jun-16 11:31N 29°47' W 095°04'0 0.0
2016-Jun-16 08:32N 29°47' W 095°04'3 0.5
2016-Jun-16 02:28N 29°44' W 095°07'4 1.7
2016-Jun-16 00:27N 29°45' W 095°11'3 2.8
2016-Jun-15 23:28N 29°44' W 095°08'4 4.9
2016-Jun-15 22:33N 29°47' W 095°04'0 0.3
2016-Jun-15 21:33N 29°47' W 095°04'3 3.1
2016-Jun-15 20:33N 29°44' W 095°03'3 2.6
2016-Jun-15 19:33N 29°47' W 095°05'1 0.2
2016-Jun-15 14:21N 29°46' W 095°05'  

Dump ship's entire track history